createdAt,value
2023-04-15T00:00:14.166Z,69.07
2023-04-15T00:01:19.508Z,68.93
2023-04-15T00:02:21.787Z,69.21
2023-04-15T00:03:23.945Z,68.47
2023-04-15T00:04:25.967Z,69.21
2023-04-15T00:05:29.604Z,68.88
2023-04-15T00:06:31.521Z,68.12
2023-04-15T00:07:33.402Z,68.62
2023-04-15T00:08:35.249Z,68.70
2023-04-15T00:09:37.050Z,68.37
2023-04-15T00:10:38.835Z,68.53
2023-04-15T00:11:40.548Z,68.26
2023-04-15T00:12:42.606Z,68.63
2023-04-15T00:13:44.730Z,68.50
2023-04-15T00:14:46.532Z,68.49
2023-04-15T00:15:48.209Z,68.06
2023-04-15T00:16:55.666Z,68.64
2023-04-15T00:17:57.953Z,68.61
2023-04-15T00:18:59.924Z,68.88
2023-04-15T00:20:01.901Z,68.45
2023-04-15T00:21:04.778Z,68.53
2023-04-15T00:22:07.187Z,68.33
2023-04-15T00:23:08.898Z,68.75
2023-04-15T00:24:10.643Z,68.91
2023-04-15T00:25:12.367Z,68.39
2023-04-15T00:26:14.339Z,68.61
2023-04-15T00:27:16.423Z,68.06
2023-04-15T00:28:18.967Z,68.15
2023-04-15T00:29:20.698Z,68.44
2023-04-15T00:30:22.679Z,68.30
2023-04-15T00:31:24.468Z,68.29
2023-04-15T00:32:26.334Z,68.25
2023-04-15T00:33:28.098Z,68.26
2023-04-15T00:34:30.101Z,68.22
2023-04-15T00:35:34.894Z,68.06
2023-04-15T00:36:36.745Z,68.27
2023-04-15T00:37:38.539Z,68.20
2023-04-15T00:38:40.318Z,68.02
2023-04-15T00:39:42.080Z,68.54
2023-04-15T00:40:43.809Z,68.58
2023-04-15T00:41:47.440Z,68.61
2023-04-15T00:42:49.135Z,68.29
2023-04-15T00:43:50.980Z,68.60
2023-04-15T00:44:52.676Z,68.17
2023-04-15T00:45:56.108Z,68.62
2023-04-15T00:46:58.629Z,68.67
2023-04-15T00:48:00.461Z,68.21
2023-04-15T00:49:04.577Z,68.63
2023-04-15T00:50:06.986Z,68.86
2023-04-15T00:51:09.809Z,68.34
2023-04-15T00:52:11.567Z,68.32
2023-04-15T00:53:13.249Z,68.28
2023-04-15T00:54:15.313Z,68.49
2023-04-15T00:55:17.137Z,68.89
2023-04-15T00:56:24.565Z,68.72
2023-04-15T00:57:27.189Z,68.66
2023-04-15T00:58:29.268Z,68.78
2023-04-15T00:59:31.831Z,69.17
2023-04-15T01:00:33.600Z,68.66
2023-04-15T01:01:38.702Z,69.33
2023-04-15T01:02:41.127Z,68.67
2023-04-15T01:03:43.189Z,68.97
2023-04-15T01:04:44.971Z,68.74
2023-04-15T01:05:46.885Z,68.51
2023-04-15T01:06:48.580Z,68.89
2023-04-15T01:07:50.388Z,68.86
2023-04-15T01:08:52.116Z,69.11
2023-04-15T01:09:54.084Z,69.38
2023-04-15T01:10:57.417Z,68.91
2023-04-15T01:11:59.468Z,69.71
2023-04-15T01:13:01.248Z,69.16
2023-04-15T01:14:03.310Z,69.52
2023-04-15T01:15:05.899Z,69.11
2023-04-15T01:16:08.978Z,69.25
2023-04-15T01:17:10.748Z,69.61
2023-04-15T01:18:12.636Z,69.65
2023-04-15T01:19:16.870Z,69.54
2023-04-15T01:20:18.813Z,69.67
2023-04-15T01:21:20.934Z,69.88
2023-04-15T01:22:23.926Z,69.32
2023-04-15T01:23:26.450Z,70.12
2023-04-15T01:24:30.482Z,69.72
2023-04-15T01:25:33.717Z,70.19
2023-04-15T01:26:38.709Z,69.78
2023-04-15T01:27:42.440Z,69.52
2023-04-15T01:28:44.325Z,69.48
2023-04-15T01:29:46.183Z,70.08
2023-04-15T01:30:48.116Z,69.76
2023-04-15T01:31:55.163Z,69.13
2023-04-15T01:32:57.091Z,69.55
2023-04-15T01:33:59.491Z,69.67
2023-04-15T01:35:01.526Z,69.35
2023-04-15T01:36:03.898Z,69.78
2023-04-15T01:37:05.666Z,69.13
2023-04-15T01:38:09.527Z,69.04
2023-04-15T01:39:11.319Z,69.33
2023-04-15T01:40:14.066Z,69.39
2023-04-15T01:41:15.770Z,69.00
2023-04-15T01:42:17.756Z,69.46
2023-04-15T01:43:19.839Z,68.92
2023-04-15T01:44:21.822Z,69.23
2023-04-15T01:45:23.729Z,68.63
2023-04-15T01:46:25.479Z,69.44
2023-04-15T01:47:27.236Z,69.28
2023-04-15T01:48:29.051Z,69.43
2023-04-15T01:49:30.798Z,69.50
2023-04-15T01:50:32.750Z,69.24
2023-04-15T01:51:34.425Z,69.32
2023-04-15T01:52:36.098Z,69.74
2023-04-15T01:53:37.950Z,69.18
2023-04-15T01:54:39.616Z,69.33
2023-04-15T01:55:41.927Z,69.45
2023-04-15T01:56:43.609Z,69.86
2023-04-15T01:57:45.446Z,69.49
2023-04-15T01:58:47.211Z,70.01
2023-04-15T01:59:48.940Z,70.37
2023-04-15T02:00:50.814Z,70.37
2023-04-15T02:01:52.721Z,70.25
2023-04-15T02:02:54.725Z,70.23
2023-04-15T02:03:56.943Z,70.75
2023-04-15T02:04:59.113Z,69.99
2023-04-15T02:06:00.947Z,70.22
2023-04-15T02:07:02.661Z,71.23
2023-04-15T02:08:04.431Z,71.46
2023-04-15T02:09:06.167Z,71.24
2023-04-15T02:10:08.163Z,71.27
2023-04-15T02:11:10.234Z,70.93
2023-04-15T02:12:12.745Z,70.77
2023-04-15T02:13:14.869Z,71.04
2023-04-15T02:14:16.649Z,71.21
2023-04-15T02:15:18.399Z,71.06
2023-04-15T02:16:20.678Z,71.48
2023-04-15T02:17:22.495Z,71.56
2023-04-15T02:18:24.224Z,71.35
2023-04-15T02:19:26.206Z,70.98
2023-04-15T02:20:28.088Z,71.60
2023-04-15T02:21:30.554Z,71.18
2023-04-15T02:22:32.451Z,71.22
2023-04-15T02:23:34.161Z,71.54
2023-04-15T02:24:36.080Z,71.44
2023-04-15T02:25:39.190Z,72.18
2023-04-15T02:26:40.917Z,72.11
2023-04-15T02:27:42.713Z,71.60
2023-04-15T02:28:44.434Z,71.74
2023-04-15T02:29:46.443Z,71.68
2023-04-15T02:30:53.506Z,71.60
2023-04-15T02:31:55.744Z,71.49
2023-04-15T02:32:57.658Z,71.96
2023-04-15T02:34:00.284Z,71.79
2023-04-15T02:35:05.880Z,72.18
2023-04-15T02:36:08.503Z,71.38
2023-04-15T02:37:12.102Z,71.71
2023-04-15T02:38:14.874Z,71.09
2023-04-15T02:39:18.716Z,71.89
2023-04-15T02:40:20.604Z,71.20
2023-04-15T02:41:27.264Z,71.57
2023-04-15T02:42:30.460Z,71.04
2023-04-15T02:43:32.188Z,70.66
2023-04-15T02:44:35.370Z,70.89
2023-04-15T02:45:37.156Z,71.62
2023-04-15T02:46:38.999Z,71.81
2023-04-15T02:47:44.592Z,70.86
2023-04-15T02:48:46.622Z,71.56
2023-04-15T02:49:48.391Z,71.55
2023-04-15T02:50:50.081Z,72.71
2023-04-15T02:51:51.975Z,71.77
2023-04-15T02:52:53.661Z,71.83
2023-04-15T02:53:55.383Z,71.31
2023-04-15T02:55:01.914Z,72.02
2023-04-15T02:56:03.766Z,71.50
2023-04-15T02:57:06.960Z,71.31
2023-04-15T02:58:08.661Z,71.08
2023-04-15T02:59:10.453Z,70.43
2023-04-15T03:00:12.877Z,70.00
2023-04-15T03:01:14.892Z,70.54
2023-04-15T03:02:16.824Z,70.93
2023-04-15T03:03:18.808Z,70.80
2023-04-15T03:04:20.685Z,70.67
2023-04-15T03:05:25.876Z,71.28
2023-04-15T03:06:27.798Z,71.09
2023-04-15T03:07:29.608Z,71.04
2023-04-15T03:08:31.600Z,71.66
2023-04-15T03:09:33.350Z,70.97
2023-04-15T03:10:35.012Z,71.71
2023-04-15T03:11:40.778Z,71.74
2023-04-15T03:12:42.576Z,71.22
2023-04-15T03:13:44.380Z,71.40
2023-04-15T03:14:46.080Z,72.08
2023-04-15T03:15:48.378Z,71.64
2023-04-15T03:16:54.296Z,71.28
2023-04-15T03:17:56.137Z,69.84
2023-04-15T03:18:57.900Z,70.96
2023-04-15T03:19:59.635Z,70.28
2023-04-15T03:21:01.588Z,70.13
2023-04-15T03:22:03.334Z,69.77
2023-04-15T03:23:05.360Z,68.63
2023-04-15T03:24:07.189Z,68.73
2023-04-15T03:25:09.382Z,68.45
2023-04-15T03:26:11.221Z,68.66
2023-04-15T03:27:13.354Z,68.59
2023-04-15T03:28:15.058Z,68.59
2023-04-15T03:29:16.785Z,69.04
2023-04-15T03:30:18.509Z,68.92
2023-04-15T03:31:20.305Z,69.05
2023-04-15T03:32:22.064Z,69.30
2023-04-15T03:33:23.869Z,69.16
2023-04-15T03:34:25.846Z,68.87
2023-04-15T03:35:27.548Z,69.63
2023-04-15T03:36:33.144Z,69.63
2023-04-15T03:37:34.860Z,70.09
2023-04-15T03:38:36.608Z,69.82
2023-04-15T03:39:38.353Z,70.53
2023-04-15T03:40:43.481Z,69.96
2023-04-15T03:41:45.181Z,69.65
2023-04-15T03:42:46.906Z,70.72
2023-04-15T03:43:48.637Z,70.29
2023-04-15T03:44:50.429Z,71.19
2023-04-15T03:45:52.202Z,71.04
2023-04-15T03:46:54.632Z,70.59
2023-04-15T03:47:57.386Z,70.82
2023-04-15T03:49:02.790Z,71.41
2023-04-15T03:50:05.189Z,71.41
2023-04-15T03:51:06.916Z,71.01
2023-04-15T03:52:08.618Z,71.45
2023-04-15T03:53:10.479Z,71.17
2023-04-15T03:54:13.011Z,71.84
2023-04-15T03:55:15.578Z,71.08
2023-04-15T03:56:17.395Z,70.72
2023-04-15T03:57:19.091Z,71.71
2023-04-15T03:58:20.892Z,71.23
2023-04-15T03:59:22.575Z,71.20
2023-04-15T04:00:24.297Z,70.96
2023-04-15T04:01:26.060Z,70.45
2023-04-15T04:02:28.461Z,70.33
2023-04-15T04:03:30.408Z,70.45
2023-04-15T04:04:32.662Z,70.61
2023-04-15T04:05:37.250Z,69.88
2023-04-15T04:06:39.699Z,69.95
2023-04-15T04:07:41.584Z,69.64
2023-04-15T04:08:43.692Z,69.46
2023-04-15T04:09:47.301Z,68.96
2023-04-15T04:10:49.216Z,69.43
2023-04-15T04:11:50.899Z,68.95
2023-04-15T04:12:52.612Z,68.60
2023-04-15T04:13:54.420Z,69.29
2023-04-15T04:14:56.512Z,69.28
2023-04-15T04:15:58.338Z,69.30
2023-04-15T04:17:00.144Z,69.60
2023-04-15T04:18:02.012Z,68.93
2023-04-15T04:19:04.000Z,69.12
2023-04-15T04:20:06.824Z,69.18
2023-04-15T04:21:08.623Z,68.46
2023-04-15T04:22:10.672Z,68.61
2023-04-15T04:23:12.518Z,69.08
2023-04-15T04:24:14.265Z,68.83
2023-04-15T04:25:16.455Z,68.83
2023-04-15T04:26:18.202Z,68.54
2023-04-15T04:27:19.903Z,68.32
2023-04-15T04:28:21.830Z,67.99
2023-04-15T04:29:23.665Z,67.83
2023-04-15T04:30:25.410Z,67.98
2023-04-15T04:31:27.480Z,68.15
2023-04-15T04:32:29.349Z,68.36
2023-04-15T04:33:31.346Z,68.61
2023-04-15T04:34:33.229Z,69.69
2023-04-15T04:35:37.793Z,70.58
2023-04-15T04:36:39.536Z,70.49
2023-04-15T04:37:41.221Z,70.36
2023-04-15T04:38:42.977Z,72.17
2023-04-15T04:39:44.703Z,72.99
2023-04-15T04:40:46.761Z,72.75
2023-04-15T04:41:48.501Z,72.82
2023-04-15T04:42:50.234Z,72.99
2023-04-15T04:43:52.103Z,73.34
2023-04-15T04:44:53.799Z,71.37
2023-04-15T04:45:55.902Z,70.56
2023-04-15T04:46:57.659Z,69.80
2023-04-15T04:47:59.460Z,69.24
2023-04-15T04:49:04.225Z,67.98
2023-04-15T04:50:06.967Z,67.23
2023-04-15T04:51:09.564Z,67.45
2023-04-15T04:52:11.746Z,66.02
2023-04-15T04:53:13.557Z,65.20
2023-04-15T04:54:15.271Z,63.50
2023-04-15T04:55:16.965Z,63.00
2023-04-15T04:56:18.662Z,61.45
2023-04-15T04:57:20.378Z,61.52
2023-04-15T04:58:22.086Z,60.34
2023-04-15T04:59:24.230Z,59.91
2023-04-15T05:00:25.904Z,58.88
2023-04-15T05:01:27.697Z,58.72
2023-04-15T05:02:29.574Z,57.54
2023-04-15T05:03:31.532Z,57.27
2023-04-15T05:04:33.369Z,56.33
2023-04-15T05:05:37.035Z,55.73
2023-04-15T05:06:38.728Z,55.90
2023-04-15T05:07:40.736Z,55.29
2023-04-15T05:08:42.464Z,52.65
2023-04-15T05:09:44.163Z,52.55
2023-04-15T05:10:46.035Z,52.93
2023-04-15T05:11:47.785Z,51.25
2023-04-15T05:12:49.694Z,51.34
2023-04-15T05:13:51.427Z,51.03
2023-04-15T05:14:53.121Z,50.35
2023-04-15T05:15:54.881Z,49.20
2023-04-15T05:16:57.017Z,48.78
2023-04-15T05:17:58.853Z,48.67
2023-04-15T05:19:01.018Z,47.77
2023-04-15T05:20:03.871Z,47.26
2023-04-15T05:21:06.077Z,46.28
2023-04-15T05:22:11.035Z,43.25
2023-04-15T05:23:12.806Z,45.05
2023-04-15T05:24:15.582Z,44.92
2023-04-15T05:25:17.328Z,44.94
2023-04-15T05:26:19.098Z,43.85
2023-04-15T05:27:20.907Z,43.68
2023-04-15T05:28:22.638Z,42.61
2023-04-15T05:29:24.379Z,43.14
2023-04-15T05:30:26.748Z,42.78
2023-04-15T05:31:28.512Z,42.41
2023-04-15T05:32:30.307Z,42.92
2023-04-15T05:33:32.048Z,42.25
2023-04-15T05:34:33.774Z,41.79
2023-04-15T05:35:35.825Z,40.55
2023-04-15T05:36:37.688Z,40.60
2023-04-15T05:37:39.411Z,39.53
2023-04-15T05:38:41.385Z,40.03
2023-04-15T05:39:43.475Z,40.56
2023-04-15T05:40:45.151Z,39.65
2023-04-15T05:41:46.880Z,38.35
2023-04-15T05:42:48.674Z,38.59
2023-04-15T05:43:50.367Z,38.95
2023-04-15T05:44:52.171Z,38.69
2023-04-15T05:45:54.232Z,37.79
2023-04-15T05:46:55.938Z,38.33
2023-04-15T05:47:57.684Z,37.60
2023-04-15T05:48:59.600Z,38.01
2023-04-15T05:50:01.788Z,36.64
2023-04-15T05:51:03.680Z,36.25
2023-04-15T05:52:05.843Z,36.22
2023-04-15T05:53:08.453Z,35.92
2023-04-15T05:54:10.191Z,35.32
2023-04-15T05:55:12.556Z,34.49
2023-04-15T05:56:14.367Z,35.29
2023-04-15T05:57:16.263Z,34.75
2023-04-15T05:58:18.005Z,34.70
2023-04-15T05:59:19.773Z,34.68
2023-04-15T06:00:21.465Z,34.87
2023-04-15T06:01:23.192Z,34.93
2023-04-15T06:02:28.135Z,33.72
2023-04-15T06:03:30.823Z,33.68
2023-04-15T06:04:32.901Z,34.37
2023-04-15T06:05:34.803Z,32.80
2023-04-15T06:06:36.559Z,33.79
2023-04-15T06:07:38.923Z,34.56
2023-04-15T06:08:40.696Z,34.29
2023-04-15T06:09:42.398Z,33.63
2023-04-15T06:10:44.160Z,33.79
2023-04-15T06:11:45.883Z,33.50
2023-04-15T06:12:47.711Z,34.14
2023-04-15T06:13:49.565Z,34.13
2023-04-15T06:14:51.434Z,33.68
2023-04-15T06:15:53.758Z,33.13
2023-04-15T06:16:55.502Z,33.42
2023-04-15T06:17:57.492Z,33.69
2023-04-15T06:18:59.343Z,33.39
2023-04-15T06:20:01.255Z,33.95
2023-04-15T06:21:03.083Z,32.11
2023-04-15T06:22:07.033Z,32.73
2023-04-15T06:23:08.744Z,32.87
2023-04-15T06:24:10.505Z,32.43
2023-04-15T06:25:12.287Z,32.37
2023-04-15T06:26:13.987Z,32.18
2023-04-15T06:27:15.817Z,31.37
2023-04-15T06:28:18.849Z,32.08
2023-04-15T06:29:20.705Z,32.45
2023-04-15T06:30:23.975Z,32.08
2023-04-15T06:31:26.355Z,32.02
2023-04-15T06:32:28.125Z,31.78
2023-04-15T06:33:30.200Z,31.45
2023-04-15T06:34:32.048Z,31.64
2023-04-15T06:35:33.815Z,31.72
2023-04-15T06:36:35.700Z,31.94
2023-04-15T06:37:37.407Z,30.90
2023-04-15T06:38:39.099Z,31.84
2023-04-15T06:39:40.788Z,32.11
2023-04-15T06:40:42.989Z,30.75
2023-04-15T06:41:44.717Z,30.87
2023-04-15T06:42:46.602Z,30.55
2023-04-15T06:43:48.377Z,31.10
2023-04-15T06:44:50.534Z,30.25
2023-04-15T06:45:52.652Z,31.22
2023-04-15T06:46:54.673Z,30.79
2023-04-15T06:47:56.417Z,31.04
2023-04-15T06:48:59.330Z,30.40
2023-04-15T06:50:01.112Z,30.56
2023-04-15T06:51:04.213Z,31.23
2023-04-15T06:52:06.046Z,29.55
2023-04-15T06:53:07.782Z,30.37
2023-04-15T06:54:09.501Z,29.35
2023-04-15T06:55:11.520Z,29.26
2023-04-15T06:56:13.289Z,29.05
2023-04-15T06:57:14.981Z,29.52
2023-04-15T06:58:17.343Z,28.83
2023-04-15T06:59:19.178Z,28.97
2023-04-15T07:00:21.227Z,29.37
2023-04-15T07:01:23.390Z,28.01
2023-04-15T07:02:25.280Z,28.72
2023-04-15T07:03:27.316Z,28.96
2023-04-15T07:04:29.136Z,27.85
2023-04-15T07:05:32.549Z,28.89
2023-04-15T07:06:35.732Z,27.60
2023-04-15T07:07:38.527Z,27.82
2023-04-15T07:08:40.421Z,26.92
2023-04-15T07:09:42.213Z,27.97
2023-04-15T07:10:43.986Z,27.75
2023-04-15T07:11:45.772Z,27.88
2023-04-15T07:12:48.817Z,27.42
2023-04-15T07:13:50.489Z,28.22
2023-04-15T07:14:52.290Z,27.61
2023-04-15T07:15:53.975Z,28.14
2023-04-15T07:16:55.929Z,28.78
2023-04-15T07:17:57.753Z,28.88
2023-04-15T07:18:59.857Z,28.47
2023-04-15T07:20:01.996Z,27.01
2023-04-15T07:21:03.996Z,26.58
2023-04-15T07:22:05.791Z,28.36
2023-04-15T07:23:08.096Z,26.85
2023-04-15T07:24:10.677Z,27.07
2023-04-15T07:25:12.581Z,26.15
2023-04-15T07:26:14.290Z,26.22
2023-04-15T07:27:16.047Z,27.39
2023-04-15T07:28:18.038Z,28.20
2023-04-15T07:29:19.754Z,27.05
2023-04-15T07:30:21.495Z,27.90
2023-04-15T07:31:23.372Z,27.21
2023-04-15T07:32:25.193Z,26.42
2023-04-15T07:33:28.455Z,25.06
2023-04-15T07:34:31.429Z,26.44
2023-04-15T07:35:34.307Z,24.90
2023-04-15T07:36:36.938Z,25.52
2023-04-15T07:37:38.770Z,24.46
2023-04-15T07:38:40.535Z,23.95
2023-04-15T07:39:42.845Z,24.98
2023-04-15T07:40:45.121Z,27.04
2023-04-15T07:41:46.841Z,26.60
2023-04-15T07:42:49.592Z,26.41
2023-04-15T07:43:51.687Z,26.67
2023-04-15T07:44:53.458Z,27.23
2023-04-15T07:45:55.843Z,25.58
2023-04-15T07:46:57.824Z,26.46
2023-04-15T07:47:59.557Z,24.90
2023-04-15T07:49:01.684Z,26.21
2023-04-15T07:50:03.822Z,24.89
2023-04-15T07:51:06.733Z,25.03
2023-04-15T07:52:08.655Z,24.88
2023-04-15T07:53:10.406Z,25.64
2023-04-15T07:54:12.116Z,25.47
2023-04-15T07:55:13.990Z,26.01
2023-04-15T07:56:15.864Z,25.71
2023-04-15T07:57:17.958Z,24.62
2023-04-15T07:58:21.585Z,24.68
2023-04-15T07:59:23.317Z,24.91
2023-04-15T08:00:25.108Z,24.31
2023-04-15T08:01:26.901Z,24.56
2023-04-15T08:02:28.712Z,25.22
2023-04-15T08:03:30.605Z,26.55
2023-04-15T08:04:34.284Z,24.72
2023-04-15T08:05:36.107Z,25.81
2023-04-15T08:06:40.103Z,24.68
2023-04-15T08:07:42.018Z,26.19
2023-04-15T08:08:44.120Z,25.55
2023-04-15T08:09:48.279Z,25.46
2023-04-15T08:10:52.505Z,24.27
2023-04-15T08:11:54.709Z,26.64
2023-04-15T08:12:56.608Z,25.87
2023-04-15T08:13:58.355Z,25.09
2023-04-15T08:15:01.109Z,25.07
2023-04-15T08:16:19.045Z,26.81
2023-04-15T08:17:21.216Z,27.33
2023-04-15T08:18:23.094Z,27.08
2023-04-15T08:19:24.891Z,27.62
2023-04-15T08:20:26.826Z,26.07
2023-04-15T08:21:28.746Z,25.08
2023-04-15T08:22:30.565Z,24.85
2023-04-15T08:23:33.896Z,24.59
2023-04-15T08:24:35.615Z,25.48
2023-04-15T08:25:38.098Z,24.89
2023-04-15T08:26:39.922Z,24.61
2023-04-15T08:27:41.658Z,26.46
2023-04-15T08:28:45.630Z,26.85
2023-04-15T08:29:47.322Z,25.71
2023-04-15T08:30:49.221Z,23.96
2023-04-15T08:31:51.091Z,23.86
2023-04-15T08:32:52.922Z,25.73
2023-04-15T08:33:56.981Z,24.60
2023-04-15T08:34:58.745Z,23.35
2023-04-15T08:36:00.470Z,24.64
2023-04-15T08:37:02.207Z,23.50
2023-04-15T08:38:03.918Z,24.13
2023-04-15T08:39:05.695Z,23.52
2023-04-15T08:40:08.682Z,23.99
2023-04-15T08:41:18.824Z,24.79
2023-04-15T08:42:27.918Z,23.93
2023-04-15T08:43:35.996Z,24.71
2023-04-15T08:44:38.413Z,24.69
2023-04-15T08:45:40.120Z,24.26
2023-04-15T08:46:43.023Z,23.46
2023-04-15T08:47:47.559Z,23.83
2023-04-15T08:48:49.785Z,24.03
2023-04-15T08:49:54.483Z,24.24
2023-04-15T08:50:56.899Z,23.93
2023-04-15T08:52:00.047Z,23.76
2023-04-15T08:53:02.702Z,23.86
2023-04-15T08:54:05.105Z,24.12
2023-04-15T08:55:09.141Z,23.07
2023-04-15T08:56:14.344Z,23.75
2023-04-15T08:57:16.575Z,23.73
2023-04-15T08:58:22.376Z,26.03
2023-04-15T08:59:24.307Z,24.11
2023-04-15T09:00:27.224Z,23.44
2023-04-15T09:01:31.595Z,23.43
2023-04-15T09:02:36.541Z,22.18
2023-04-15T09:03:39.029Z,24.55
2023-04-15T09:04:41.543Z,22.71
2023-04-15T09:05:43.458Z,25.09
2023-04-15T09:06:45.206Z,24.41
2023-04-15T09:07:47.094Z,23.33
2023-04-15T09:08:49.984Z,22.33
2023-04-15T09:09:52.454Z,23.68
2023-04-15T09:10:54.965Z,23.78
2023-04-15T09:11:56.929Z,23.01
2023-04-15T09:12:58.947Z,22.49
2023-04-15T09:14:00.645Z,23.91
2023-04-15T09:15:03.047Z,22.51
2023-04-15T09:16:06.576Z,24.09
2023-04-15T09:17:10.701Z,24.15
2023-04-15T09:18:13.841Z,25.32
2023-04-15T09:19:23.934Z,24.60
2023-04-15T09:20:25.623Z,25.23
2023-04-15T09:21:27.869Z,25.28
2023-04-15T09:22:33.099Z,23.82
2023-04-15T09:23:36.307Z,23.95
2023-04-15T09:24:41.124Z,22.85
2023-04-15T09:25:42.842Z,24.55
2023-04-15T09:26:44.706Z,23.46
2023-04-15T09:27:51.063Z,23.71
2023-04-15T09:28:52.787Z,24.65
2023-04-15T09:29:54.508Z,25.53
2023-04-15T09:30:57.969Z,27.15
2023-04-15T09:32:25.804Z,24.53
2023-04-15T09:33:29.272Z,24.69
2023-04-15T09:34:38.039Z,24.44
2023-04-15T09:35:42.353Z,24.95
2023-04-15T09:36:55.015Z,26.81
2023-04-15T09:38:07.733Z,27.55
2023-04-15T09:39:09.485Z,26.66
2023-04-15T09:40:11.917Z,27.82
2023-04-15T09:41:23.445Z,27.28
2023-04-15T09:42:28.796Z,27.53
2023-04-15T09:43:40.904Z,27.45
2023-04-15T09:44:42.679Z,27.70
2023-04-15T09:45:52.227Z,28.18
2023-04-15T09:46:54.126Z,29.74
2023-04-15T09:47:59.203Z,27.09
2023-04-15T09:49:12.071Z,27.14
2023-04-15T09:50:14.801Z,26.84
2023-04-15T09:51:16.527Z,27.19
2023-04-15T09:52:18.201Z,29.54
2023-04-15T09:53:22.042Z,30.00
2023-04-15T09:54:23.728Z,29.97
2023-04-15T09:55:25.497Z,28.12
2023-04-15T09:56:36.267Z,28.99
2023-04-15T09:57:41.505Z,28.63
2023-04-15T09:58:43.349Z,27.32
2023-04-15T09:59:45.084Z,28.51
2023-04-15T10:00:51.835Z,30.17
2023-04-15T10:01:53.713Z,30.02
2023-04-15T10:02:56.420Z,30.80
2023-04-15T10:03:58.884Z,34.42
2023-04-15T10:05:02.444Z,31.50
2023-04-15T10:06:05.796Z,34.32
2023-04-15T10:07:09.833Z,33.37
2023-04-15T10:08:13.089Z,30.77
2023-04-15T10:09:14.778Z,32.14
2023-04-15T10:10:17.141Z,30.27
2023-04-15T10:11:24.189Z,32.78
2023-04-15T10:12:27.475Z,31.92
2023-04-15T10:13:33.492Z,30.62
2023-04-15T10:14:38.829Z,29.85
2023-04-15T10:15:44.167Z,29.19
2023-04-15T10:16:49.220Z,29.05
2023-04-15T10:17:53.586Z,30.19
2023-04-15T10:18:56.640Z,29.12
2023-04-15T10:20:00.382Z,31.24
2023-04-15T10:21:02.462Z,29.31
2023-04-15T10:22:04.743Z,29.45
2023-04-15T10:23:09.485Z,28.16
2023-04-15T10:24:13.168Z,28.06
2023-04-15T10:25:16.542Z,27.10
2023-04-15T10:26:18.870Z,27.39
2023-04-15T10:27:21.186Z,27.99
2023-04-15T10:28:23.095Z,28.13
2023-04-15T10:29:27.427Z,27.52
2023-04-15T10:30:29.386Z,26.24
2023-04-15T10:31:31.971Z,28.80
2023-04-15T10:32:34.240Z,27.62
2023-04-15T10:33:36.462Z,25.78
2023-04-15T10:34:38.622Z,26.36
2023-04-15T10:35:40.838Z,24.74
2023-04-15T10:36:42.558Z,25.33
2023-04-15T10:37:44.267Z,25.58
2023-04-15T10:38:46.924Z,25.96
2023-04-15T10:39:49.199Z,28.54
2023-04-15T10:40:51.051Z,26.78
2023-04-15T10:42:16.063Z,27.00
2023-04-15T10:43:27.359Z,26.08
2023-04-15T10:44:29.066Z,25.55
2023-04-15T10:45:37.043Z,26.25
2023-04-15T10:46:45.923Z,29.29
2023-04-15T10:47:52.913Z,28.10
2023-04-15T10:48:55.074Z,27.32
2023-04-15T10:50:02.476Z,26.32
2023-04-15T10:51:06.059Z,30.31
2023-04-15T10:52:08.551Z,30.47
2023-04-15T10:53:10.870Z,31.71
2023-04-15T10:54:24.657Z,30.34
2023-04-15T10:55:31.468Z,29.93
2023-04-15T10:56:33.194Z,29.12
2023-04-15T10:57:37.920Z,29.13
2023-04-15T10:58:43.917Z,29.42
2023-04-15T11:00:28.988Z,28.20
2023-04-15T11:01:53.445Z,28.64
2023-04-15T11:02:59.521Z,29.30
2023-04-15T11:04:02.069Z,29.12
2023-04-15T11:05:04.407Z,28.04
2023-04-15T11:06:07.169Z,28.91
2023-04-15T11:07:08.906Z,29.52
2023-04-15T11:08:12.510Z,29.46
2023-04-15T11:09:33.927Z,31.53
2023-04-15T11:10:35.599Z,31.36
2023-04-15T11:12:07.195Z,32.22
2023-04-15T11:13:11.765Z,31.83
2023-04-15T11:14:16.675Z,30.99
2023-04-15T11:15:34.769Z,32.27
2023-04-15T11:16:45.031Z,30.24
2023-04-15T11:17:46.996Z,31.43
2023-04-15T11:18:56.064Z,30.19
2023-04-15T11:19:58.509Z,30.03
2023-04-15T11:21:03.565Z,31.66
2023-04-15T11:22:10.055Z,31.04
2023-04-15T11:23:14.534Z,32.08
2023-04-15T11:24:27.335Z,32.67
2023-04-15T11:25:31.065Z,32.42
2023-04-15T11:26:33.051Z,32.74
2023-04-15T11:27:34.736Z,31.39
2023-04-15T11:28:38.905Z,29.96
2023-04-15T11:29:40.926Z,30.64
2023-04-15T11:30:43.426Z,31.63
2023-04-15T11:31:49.752Z,31.69
2023-04-15T11:32:52.767Z,30.99
2023-04-15T11:34:00.209Z,31.31
2023-04-15T11:35:01.977Z,31.24
2023-04-15T11:36:04.510Z,30.67
2023-04-15T11:37:08.008Z,31.42
2023-04-15T11:38:12.233Z,29.61
2023-04-15T11:39:14.080Z,30.73
2023-04-15T11:40:17.749Z,30.79
2023-04-15T11:41:27.688Z,30.59
2023-04-15T11:42:39.327Z,30.59
2023-04-15T11:43:48.586Z,31.42
2023-04-15T11:44:50.367Z,33.33
2023-04-15T11:45:56.470Z,33.59
2023-04-15T11:46:58.276Z,34.32
2023-04-15T11:48:11.546Z,34.79
2023-04-15T11:49:26.750Z,34.99
2023-04-15T11:50:28.507Z,34.87
2023-04-15T11:51:34.411Z,35.03
2023-04-15T11:52:36.282Z,35.13
2023-04-15T11:53:50.701Z,34.91
2023-04-15T11:54:52.637Z,37.06
2023-04-15T11:55:54.428Z,37.71
2023-04-15T11:56:57.489Z,36.58
2023-04-15T11:58:17.021Z,37.08
2023-04-15T11:59:18.794Z,37.19
2023-04-15T12:00:21.024Z,37.47
2023-04-15T12:01:32.294Z,39.59
2023-04-15T12:02:37.459Z,37.69
2023-04-15T12:03:44.217Z,37.17
2023-04-15T12:04:46.899Z,37.96
2023-04-15T12:06:13.158Z,35.80
2023-04-15T12:07:14.894Z,35.54
2023-04-15T12:08:17.133Z,34.97
2023-04-15T12:09:20.486Z,35.51
2023-04-15T12:10:25.024Z,35.84
2023-04-15T12:11:26.706Z,36.73
2023-04-15T12:12:29.502Z,37.81
2023-04-15T12:13:31.744Z,37.82
2023-04-15T12:14:33.930Z,38.48
2023-04-15T12:15:39.405Z,39.02
2023-04-15T12:16:50.332Z,39.29
2023-04-15T12:17:55.755Z,38.38
2023-04-15T12:18:59.756Z,38.87
2023-04-15T12:20:01.485Z,38.18
2023-04-15T12:21:12.453Z,38.16
2023-04-15T12:22:17.289Z,37.71
2023-04-15T12:23:21.783Z,37.73
2023-04-15T12:24:23.832Z,37.80
2023-04-15T12:25:35.669Z,37.92
2023-04-15T12:26:44.132Z,38.02
2023-04-15T12:27:52.215Z,38.47
2023-04-15T12:29:07.529Z,38.44
2023-04-15T12:30:09.737Z,37.98
2023-04-15T12:31:13.149Z,37.63
2023-04-15T12:32:21.034Z,38.18
2023-04-15T12:33:22.953Z,37.81
2023-04-15T12:34:34.413Z,37.72
2023-04-15T12:35:36.413Z,38.77
2023-04-15T12:36:38.126Z,38.47
2023-04-15T12:37:40.503Z,38.25
2023-04-15T12:38:42.325Z,39.84
2023-04-15T12:39:46.185Z,38.65
2023-04-15T12:40:48.104Z,39.76
2023-04-15T12:41:49.797Z,40.07
2023-04-15T12:42:51.487Z,40.92
2023-04-15T12:43:53.235Z,40.36
2023-04-15T12:44:54.954Z,40.83
2023-04-15T12:45:56.998Z,41.93
2023-04-15T12:47:00.072Z,41.86
2023-04-15T12:48:02.094Z,41.29
2023-04-15T12:49:04.142Z,41.25
2023-04-15T12:50:06.534Z,41.23
2023-04-15T12:51:08.433Z,41.39
2023-04-15T12:52:10.213Z,41.90
2023-04-15T12:53:11.893Z,42.41
2023-04-15T12:54:13.585Z,42.19
2023-04-15T12:55:15.375Z,41.65
2023-04-15T12:56:17.224Z,41.47
2023-04-15T12:57:18.934Z,41.79
2023-04-15T12:58:21.634Z,41.62
2023-04-15T12:59:24.623Z,41.85
2023-04-15T13:00:26.362Z,42.00
2023-04-15T13:01:28.136Z,41.99
2023-04-15T13:02:32.319Z,41.96
2023-04-15T13:03:34.401Z,42.41
2023-04-15T13:04:36.247Z,42.94
2023-04-15T13:05:42.226Z,42.83
2023-04-15T13:06:44.182Z,43.37
2023-04-15T13:07:46.466Z,43.60
2023-04-15T13:08:57.802Z,43.50
2023-04-15T13:10:00.549Z,43.63
2023-04-15T13:11:02.247Z,44.09
2023-04-15T13:12:05.519Z,44.15
2023-04-15T13:13:07.251Z,44.05
2023-04-15T13:14:11.790Z,43.82
2023-04-15T13:15:13.698Z,44.08
2023-04-15T13:16:15.916Z,43.81
2023-04-15T13:17:20.435Z,44.89
2023-04-15T13:18:26.834Z,44.56
2023-04-15T13:19:28.591Z,44.96
2023-04-15T13:20:30.643Z,44.95
2023-04-15T13:21:35.710Z,44.75
2023-04-15T13:22:38.045Z,44.54
2023-04-15T13:23:41.404Z,44.97
2023-04-15T13:24:43.113Z,45.35
2023-04-15T13:25:44.788Z,45.86
2023-04-15T13:26:48.043Z,46.42
2023-04-15T13:27:51.556Z,46.81
2023-04-15T13:28:53.268Z,45.58
2023-04-15T13:29:55.254Z,44.92
2023-04-15T13:30:57.025Z,44.84
2023-04-15T13:31:58.882Z,45.24
2023-04-15T13:33:00.786Z,44.92